Weather at Payerne Air Base

Public forecast

Using degrees Celsius for public forecast. Weather courtesy of forecast.io.

Current aviation weather report (METAR) for Payerne Air Base

Retrieved 2020/10/19 23:20 UTC (20 minutes ago):

LSMP 192320Z AUTO 00000KT 3400NDV NCD 03/03 Q1019 RMK

Aviation forecast (TAF) for Payerne Air Base

Forecast is more than 6 hours old.

Retrieved 2020/10/19 17:00 UTC (7 hours ago):

TAF LSMP 191625Z 1917/2023 VRB03KT CAVOK BECMG 2000/2002 5000 MIFG PROB40 TEMPO 2003/2006 0500 FG VV002 BECMG 2007/2010 CAVOK